sensor_id;sensor_type;location;lat;lon;timestamp;pressure;altitude;pressure_sealevel;temperature;humidity
26775;BME280;14362;51.902;7.626;2023-03-03T00:03:49;101814.00;;;1.69;100.00
26775;BME280;14362;51.902;7.626;2023-03-03T00:07:51;101815.31;;;1.66;100.00
26775;BME280;14362;51.902;7.626;2023-03-03T00:11:55;101816.13;;;1.78;100.00
26775;BME280;14362;51.902;7.626;2023-03-03T00:16:12;101823.66;;;1.71;100.00
26775;BME280;14362;51.902;7.626;2023-03-03T00:20:33;101826.41;;;1.71;100.00
26775;BME280;14362;51.902;7.626;2023-03-03T00:24:37;101829.75;;;1.85;100.00
26775;BME280;14362;51.902;7.626;2023-03-03T00:28:43;101820.69;;;1.84;100.00
26775;BME280;14362;51.902;7.626;2023-03-03T00:32:45;101823.56;;;1.78;100.00
26775;BME280;14362;51.902;7.626;2023-03-03T00:36:53;101828.00;;;1.67;100.00
26775;BME280;14362;51.902;7.626;2023-03-03T00:40:57;101834.31;;;1.79;100.00
26775;BME280;14362;51.902;7.626;2023-03-03T00:44:59;101834.44;;;1.73;100.00
26775;BME280;14362;51.902;7.626;2023-03-03T00:49:21;101825.84;;;1.69;100.00
26775;BME280;14362;51.902;7.626;2023-03-03T00:53:25;101830.72;;;1.79;100.00
26775;BME280;14362;51.902;7.626;2023-03-03T00:57:28;101831.34;;;1.69;100.00
26775;BME280;14362;51.902;7.626;2023-03-03T01:01:29;101840.75;;;1.73;100.00
26775;BME280;14362;51.902;7.626;2023-03-03T01:05:31;101837.66;;;1.70;100.00
26775;BME280;14362;51.902;7.626;2023-03-03T01:09:32;101840.66;;;1.68;100.00
26775;BME280;14362;51.902;7.626;2023-03-03T01:13:36;101823.91;;;1.70;100.00
26775;BME280;14362;51.902;7.626;2023-03-03T01:17:40;101815.41;;;1.71;100.00
26775;BME280;14362;51.902;7.626;2023-03-03T01:21:41;101826.91;;;1.68;100.00
26775;BME280;14362;51.902;7.626;2023-03-03T01:25:43;101819.97;;;1.66;100.00
26775;BME280;14362;51.902;7.626;2023-03-03T01:29:46;101826.53;;;1.65;100.00
26775;BME280;14362;51.902;7.626;2023-03-03T01:33:47;101823.78;;;1.65;100.00
26775;BME280;14362;51.902;7.626;2023-03-03T01:37:48;101826.31;;;1.55;100.00
26775;BME280;14362;51.902;7.626;2023-03-03T01:41:50;101824.88;;;1.64;100.00
26775;BME280;14362;51.902;7.626;2023-03-03T01:46:29;101826.44;;;1.60;100.00
26775;BME280;14362;51.902;7.626;2023-03-03T01:50:39;101828.22;;;1.54;100.00
26775;BME280;14362;51.902;7.626;2023-03-03T01:54:49;101816.88;;;1.62;100.00
26775;BME280;14362;51.902;7.626;2023-03-03T01:58:58;101822.03;;;1.59;100.00
26775;BME280;14362;51.902;7.626;2023-03-03T02:03:02;101822.03;;;1.59;100.00
26775;BME280;14362;51.902;7.626;2023-03-03T02:07:06;101812.09;;;1.58;100.00
26775;BME280;14362;51.902;7.626;2023-03-03T02:11:11;101810.53;;;1.73;100.00
26775;BME280;14362;51.902;7.626;2023-03-03T02:15:19;101821.41;;;1.68;100.00
26775;BME280;14362;51.902;7.626;2023-03-03T02:19:27;101821.75;;;1.72;100.00
26775;BME280;14362;51.902;7.626;2023-03-03T02:23:37;101822.25;;;1.69;100.00
26775;BME280;14362;51.902;7.626;2023-03-03T02:27:41;101816.75;;;1.80;100.00
26775;BME280;14362;51.902;7.626;2023-03-03T02:31:43;101821.28;;;1.63;100.00
26775;BME280;14362;51.902;7.626;2023-03-03T02:35:44;101830.22;;;1.70;100.00
26775;BME280;14362;51.902;7.626;2023-03-03T02:39:45;101819.16;;;1.65;100.00
26775;BME280;14362;51.902;7.626;2023-03-03T02:43:54;101825.84;;;1.69;100.00
26775;BME280;14362;51.902;7.626;2023-03-03T02:47:57;101820.69;;;1.84;100.00
26775;BME280;14362;51.902;7.626;2023-03-03T02:51:59;101815.06;;;1.79;100.00
26775;BME280;14362;51.902;7.626;2023-03-03T02:56:01;101819.84;;;1.72;100.00
26775;BME280;14362;51.902;7.626;2023-03-03T03:00:06;101828.09;;;1.72;100.00
26775;BME280;14362;51.902;7.626;2023-03-03T03:04:10;101831.22;;;1.76;100.00
26775;BME280;14362;51.902;7.626;2023-03-03T03:08:11;101822.72;;;1.77;100.00
26775;BME280;14362;51.902;7.626;2023-03-03T03:12:13;101817.81;;;1.79;100.00
26775;BME280;14362;51.902;7.626;2023-03-03T03:16:16;101826.25;;;1.89;100.00
26775;BME280;14362;51.902;7.626;2023-03-03T03:20:18;101829.41;;;1.81;100.00
26775;BME280;14362;51.902;7.626;2023-03-03T03:24:19;101830.47;;;1.69;100.00
26775;BME280;14362;51.902;7.626;2023-03-03T03:28:20;101826.53;;;1.65;100.00
26775;BME280;14362;51.902;7.626;2023-03-03T03:32:23;101819.47;;;1.80;100.00
26775;BME280;14362;51.902;7.626;2023-03-03T03:36:25;101822.22;;;1.80;100.00
26775;BME280;14362;51.902;7.626;2023-03-03T03:40:27;101829.88;;;1.67;100.00
26775;BME280;14362;51.902;7.626;2023-03-03T03:44:28;101834.78;;;1.76;100.00
26775;BME280;14362;51.902;7.626;2023-03-03T03:48:31;101832.63;;;1.78;100.00
26775;BME280;14362;51.902;7.626;2023-03-03T03:52:33;101834.78;;;1.76;100.00
26775;BME280;14362;51.902;7.626;2023-03-03T03:56:34;101822.50;;;1.67;100.00
26775;BME280;14362;51.902;7.626;2023-03-03T04:00:38;101813.53;;;1.60;100.00
26775;BME280;14362;51.902;7.626;2023-03-03T04:04:41;101824.72;;;1.70;100.00
26775;BME280;14362;51.902;7.626;2023-03-03T04:08:43;101818.41;;;1.70;100.00
26775;BME280;14362;51.902;7.626;2023-03-03T04:12:44;101821.38;;;1.80;100.00
26775;BME280;14362;51.902;7.626;2023-03-03T04:16:46;101817.34;;;1.71;100.00
26775;BME280;14362;51.902;7.626;2023-03-03T04:20:49;101822.72;;;1.66;100.00
26775;BME280;14362;51.902;7.626;2023-03-03T04:24:51;101821.50;;;1.62;100.00
26775;BME280;14362;51.902;7.626;2023-03-03T04:28:52;101828.94;;;1.73;100.00
26775;BME280;14362;51.902;7.626;2023-03-03T04:32:54;101819.50;;;1.69;100.00
26775;BME280;14362;51.902;7.626;2023-03-03T04:36:57;101831.22;;;1.64;100.00
26775;BME280;14362;51.902;7.626;2023-03-03T04:40:58;101827.59;;;1.75;100.00
26775;BME280;14362;51.902;7.626;2023-03-03T04:45:00;101842.69;;;1.61;100.00
26775;BME280;14362;51.902;7.626;2023-03-03T04:49:01;101838.50;;;1.59;100.00
26775;BME280;14362;51.902;7.626;2023-03-03T04:53:04;101834.69;;;1.60;100.00
26775;BME280;14362;51.902;7.626;2023-03-03T04:57:06;101845.16;;;1.63;100.00
26775;BME280;14362;51.902;7.626;2023-03-03T05:01:11;101827.53;;;1.59;100.00
26775;BME280;14362;51.902;7.626;2023-03-03T05:05:12;101842.44;;;1.63;100.00
26775;BME280;14362;51.902;7.626;2023-03-03T05:09:15;101846.50;;;1.60;100.00
26775;BME280;14362;51.902;7.626;2023-03-03T05:13:17;101854.03;;;1.65;100.00
26775;BME280;14362;51.902;7.626;2023-03-03T05:17:18;101845.16;;;1.51;100.00
26775;BME280;14362;51.902;7.626;2023-03-03T05:21:20;101850.09;;;1.49;100.00
26775;BME280;14362;51.902;7.626;2023-03-03T05:25:23;101832.75;;;1.37;100.00
26775;BME280;14362;51.902;7.626;2023-03-03T05:29:24;101847.06;;;1.28;100.00
26775;BME280;14362;51.902;7.626;2023-03-03T05:33:27;101853.03;;;1.36;100.00
26775;BME280;14362;51.902;7.626;2023-03-03T05:37:29;101853.19;;;1.41;100.00
26775;BME280;14362;51.902;7.626;2023-03-03T05:41:32;101853.16;;;1.30;100.00
26775;BME280;14362;51.902;7.626;2023-03-03T05:45:35;101850.91;;;1.38;100.00
26775;BME280;14362;51.902;7.626;2023-03-03T05:49:37;101855.16;;;1.23;100.00
26775;BME280;14362;51.902;7.626;2023-03-03T05:53:39;101861.88;;;1.27;100.00
26775;BME280;14362;51.902;7.626;2023-03-03T05:57:42;101865.09;;;1.24;100.00
26775;BME280;14362;51.902;7.626;2023-03-03T06:01:43;101867.69;;;1.07;100.00
26775;BME280;14362;51.902;7.626;2023-03-03T06:05:44;101873.81;;;1.21;100.00
26775;BME280;14362;51.902;7.626;2023-03-03T06:09:47;101872.00;;;1.15;100.00
26775;BME280;14362;51.902;7.626;2023-03-03T06:13:50;101877.03;;;1.18;100.00
26775;BME280;14362;51.902;7.626;2023-03-03T06:17:51;101878.00;;;1.23;100.00
26775;BME280;14362;51.902;7.626;2023-03-03T06:21:53;101882.53;;;1.18;100.00
26775;BME280;14362;51.902;7.626;2023-03-03T06:25:54;101885.63;;;1.21;100.00
26775;BME280;14362;51.902;7.626;2023-03-03T06:29:57;101892.69;;;1.29;100.00
26775;BME280;14362;51.902;7.626;2023-03-03T06:33:58;101888.97;;;1.23;100.00
26775;BME280;14362;51.902;7.626;2023-03-03T06:38:00;101890.66;;;1.24;100.00
26775;BME280;14362;51.902;7.626;2023-03-03T06:42:01;101896.31;;;1.41;100.00
26775;BME280;14362;51.902;7.626;2023-03-03T06:46:04;101903.06;;;1.27;100.00
26775;BME280;14362;51.902;7.626;2023-03-03T06:50:07;101903.66;;;1.29;100.00
26775;BME280;14362;51.902;7.626;2023-03-03T06:54:11;101903.66;;;1.29;100.00
26775;BME280;14362;51.902;7.626;2023-03-03T06:58:15;101910.69;;;1.25;100.00
26775;BME280;14362;51.902;7.626;2023-03-03T07:02:18;101914.28;;;1.25;100.00
26775;BME280;14362;51.902;7.626;2023-03-03T07:06:22;101923.75;;;1.29;100.00
26775;BME280;14362;51.902;7.626;2023-03-03T07:10:25;101928.34;;;1.17;100.00
26775;BME280;14362;51.902;7.626;2023-03-03T07:14:28;101935.72;;;1.05;100.00
26775;BME280;14362;51.902;7.626;2023-03-03T07:18:36;101935.94;;;1.04;100.00
26775;BME280;14362;51.902;7.626;2023-03-03T07:22:39;101939.34;;;1.17;100.00
26775;BME280;14362;51.902;7.626;2023-03-03T07:26:41;101947.22;;;1.14;100.00
26775;BME280;14362;51.902;7.626;2023-03-03T07:30:42;101937.66;;;1.16;100.00
26775;BME280;14362;51.902;7.626;2023-03-03T07:34:47;101944.50;;;1.25;100.00
26775;BME280;14362;51.902;7.626;2023-03-03T07:38:50;101952.59;;;1.20;100.00
26775;BME280;14362;51.902;7.626;2023-03-03T07:42:53;101953.91;;;1.18;100.00
26775;BME280;14362;51.902;7.626;2023-03-03T07:46:54;101965.97;;;1.17;100.00
26775;BME280;14362;51.902;7.626;2023-03-03T07:51:02;101962.97;;;1.18;100.00
26775;BME280;14362;51.902;7.626;2023-03-03T07:55:24;101968.50;;;1.30;100.00
26775;BME280;14362;51.902;7.626;2023-03-03T07:59:27;101971.75;;;1.38;100.00
26775;BME280;14362;51.902;7.626;2023-03-03T08:03:44;101984.66;;;1.38;100.00
26775;BME280;14362;51.902;7.626;2023-03-03T08:07:48;101982.03;;;1.43;100.00
26775;BME280;14362;51.902;7.626;2023-03-03T08:11:52;101984.13;;;1.70;100.00
26775;BME280;14362;51.902;7.626;2023-03-03T08:16:00;101990.06;;;1.44;100.00
26775;BME280;14362;51.902;7.626;2023-03-03T08:24:25;101997.75;;;1.65;100.00
26775;BME280;14362;51.902;7.626;2023-03-03T08:28:27;102001.22;;;1.72;100.00
26775;BME280;14362;51.902;7.626;2023-03-03T08:32:28;101990.63;;;1.76;100.00
26775;BME280;14362;51.902;7.626;2023-03-03T08:36:30;101987.63;;;1.89;100.00
26775;BME280;14362;51.902;7.626;2023-03-03T08:40:33;101983.22;;;1.88;100.00
26775;BME280;14362;51.902;7.626;2023-03-03T08:44:34;101979.63;;;1.87;100.00
26775;BME280;14362;51.902;7.626;2023-03-03T08:48:36;101982.00;;;1.84;100.00
26775;BME280;14362;51.902;7.626;2023-03-03T08:52:38;101984.31;;;1.98;100.00
26775;BME280;14362;51.902;7.626;2023-03-03T08:56:41;101979.16;;;2.01;100.00
26775;BME280;14362;51.902;7.626;2023-03-03T09:00:42;101989.81;;;1.98;100.00
26775;BME280;14362;51.902;7.626;2023-03-03T09:04:44;101988.00;;;2.03;100.00
26775;BME280;14362;51.902;7.626;2023-03-03T09:08:45;101986.59;;;2.24;100.00
26775;BME280;14362;51.902;7.626;2023-03-03T09:12:48;101987.53;;;2.41;100.00
26775;BME280;14362;51.902;7.626;2023-03-03T09:16:51;101999.22;;;2.48;100.00
26775;BME280;14362;51.902;7.626;2023-03-03T09:20:54;101989.28;;;2.58;100.00
26775;BME280;14362;51.902;7.626;2023-03-03T09:24:57;101986.91;;;2.62;100.00
26775;BME280;14362;51.902;7.626;2023-03-03T09:29:17;101993.84;;;2.53;100.00
26775;BME280;14362;51.902;7.626;2023-03-03T09:33:26;101987.50;;;2.64;100.00
26775;BME280;14362;51.902;7.626;2023-03-03T09:37:33;101992.38;;;2.73;100.00
26775;BME280;14362;51.902;7.626;2023-03-03T09:41:50;102002.41;;;2.79;100.00
26775;BME280;14362;51.902;7.626;2023-03-03T09:46:03;101990.63;;;2.95;100.00
26775;BME280;14362;51.902;7.626;2023-03-03T09:50:19;102000.81;;;2.95;100.00
26775;BME280;14362;51.902;7.626;2023-03-03T09:54:32;101999.22;;;3.10;100.00
26775;BME280;14362;51.902;7.626;2023-03-03T09:58:54;102000.50;;;3.19;100.00
26775;BME280;14362;51.902;7.626;2023-03-03T10:03:13;102007.25;;;3.39;100.00
26775;BME280;14362;51.902;7.626;2023-03-03T10:07:29;102003.47;;;3.45;100.00
26775;BME280;14362;51.902;7.626;2023-03-03T10:11:44;102013.75;;;3.50;100.00
26775;BME280;14362;51.902;7.626;2023-03-03T10:15:52;102014.72;;;3.55;100.00
26775;BME280;14362;51.902;7.626;2023-03-03T10:20:08;102019.97;;;3.57;100.00
26775;BME280;14362;51.902;7.626;2023-03-03T10:24:26;102023.16;;;3.65;100.00
26775;BME280;14362;51.902;7.626;2023-03-03T10:28:51;102022.00;;;3.78;100.00
26775;BME280;14362;51.902;7.626;2023-03-03T10:33:00;102020.84;;;3.90;100.00
26775;BME280;14362;51.902;7.626;2023-03-03T10:37:12;102023.38;;;4.08;100.00
26775;BME280;14362;51.902;7.626;2023-03-03T10:41:28;102012.16;;;4.14;100.00
26775;BME280;14362;51.902;7.626;2023-03-03T10:45:58;102014.56;;;4.44;100.00
26775;BME280;14362;51.902;7.626;2023-03-03T10:50:12;102011.50;;;4.40;100.00
26775;BME280;14362;51.902;7.626;2023-03-03T10:54:28;102010.44;;;4.46;100.00
26775;BME280;14362;51.902;7.626;2023-03-03T10:58:41;102020.13;;;4.65;100.00
26775;BME280;14362;51.902;7.626;2023-03-03T11:02:56;102012.19;;;4.69;100.00
26775;BME280;14362;51.902;7.626;2023-03-03T11:07:08;102018.53;;;4.69;100.00
26775;BME280;14362;51.902;7.626;2023-03-03T11:11:18;102016.16;;;4.78;100.00
26775;BME280;14362;51.902;7.626;2023-03-03T11:15:32;102020.19;;;4.70;100.00
26775;BME280;14362;51.902;7.626;2023-03-03T11:19:49;102017.41;;;4.87;100.00
26775;BME280;14362;51.902;7.626;2023-03-03T11:24:12;102010.00;;;4.71;100.00
26775;BME280;14362;51.902;7.626;2023-03-03T11:28:27;102006.41;;;4.92;100.00
26775;BME280;14362;51.902;7.626;2023-03-03T11:32:41;101997.00;;;4.93;100.00
26775;BME280;14362;51.902;7.626;2023-03-03T11:36:49;102004.16;;;5.10;100.00
26775;BME280;14362;51.902;7.626;2023-03-03T11:40:56;101996.69;;;5.10;100.00
26775;BME280;14362;51.902;7.626;2023-03-03T11:45:02;102000.56;;;5.09;100.00
26775;BME280;14362;51.902;7.626;2023-03-03T11:49:12;101990.13;;;5.16;100.00
26775;BME280;14362;51.902;7.626;2023-03-03T11:53:25;101987.44;;;5.21;100.00
26775;BME280;14362;51.902;7.626;2023-03-03T11:57:34;101978.25;;;4.95;100.00
26775;BME280;14362;51.902;7.626;2023-03-03T12:01:45;101978.25;;;4.95;100.00
26775;BME280;14362;51.902;7.626;2023-03-03T12:05:55;101965.97;;;5.07;100.00
26775;BME280;14362;51.902;7.626;2023-03-03T12:10:04;101973.38;;;5.02;100.00
26775;BME280;14362;51.902;7.626;2023-03-03T12:14:13;101967.00;;;5.01;100.00
26775;BME280;14362;51.902;7.626;2023-03-03T12:18:34;101972.47;;;5.17;100.00
26775;BME280;14362;51.902;7.626;2023-03-03T12:22:51;101972.09;;;5.09;100.00
26775;BME280;14362;51.902;7.626;2023-03-03T12:27:07;101961.34;;;5.39;100.00
26775;BME280;14362;51.902;7.626;2023-03-03T12:31:21;101953.63;;;5.67;100.00
26775;BME280;14362;51.902;7.626;2023-03-03T12:35:33;101945.31;;;5.67;100.00
26775;BME280;14362;51.902;7.626;2023-03-03T12:39:43;101949.56;;;5.75;100.00
26775;BME280;14362;51.902;7.626;2023-03-03T12:43:55;101937.38;;;5.44;100.00
26775;BME280;14362;51.902;7.626;2023-03-03T12:47:59;101935.34;;;5.35;100.00
26775;BME280;14362;51.902;7.626;2023-03-03T12:52:14;101945.69;;;5.18;100.00
26775;BME280;14362;51.902;7.626;2023-03-03T12:56:25;101944.81;;;5.17;100.00
26775;BME280;14362;51.902;7.626;2023-03-03T13:00:41;101940.69;;;5.20;100.00
26775;BME280;14362;51.902;7.626;2023-03-03T13:04:50;101937.53;;;5.06;100.00
26775;BME280;14362;51.902;7.626;2023-03-03T13:09:11;101934.41;;;5.24;100.00
26775;BME280;14362;51.902;7.626;2023-03-03T13:13:21;101939.78;;;5.67;100.00
26775;BME280;14362;51.902;7.626;2023-03-03T13:17:28;101930.97;;;6.02;100.00
26775;BME280;14362;51.902;7.626;2023-03-03T13:21:34;101929.22;;;6.22;100.00
26775;BME280;14362;51.902;7.626;2023-03-03T13:25:47;101919.81;;;5.87;100.00
26775;BME280;14362;51.902;7.626;2023-03-03T13:29:56;101909.28;;;6.25;100.00
26775;BME280;14362;51.902;7.626;2023-03-03T13:34:00;101918.25;;;6.01;100.00
26775;BME280;14362;51.902;7.626;2023-03-03T13:38:02;101912.00;;;6.15;100.00
26775;BME280;14362;51.902;7.626;2023-03-03T13:42:13;101912.88;;;6.25;100.00
26775;BME280;14362;51.902;7.626;2023-03-03T13:46:27;101903.34;;;6.53;100.00
26775;BME280;14362;51.902;7.626;2023-03-03T13:50:38;101906.28;;;6.31;100.00
26775;BME280;14362;51.902;7.626;2023-03-03T13:54:51;101901.34;;;5.97;100.00
26775;BME280;14362;51.902;7.626;2023-03-03T13:59:02;101900.72;;;6.26;100.00
26775;BME280;14362;51.902;7.626;2023-03-03T14:03:39;101884.72;;;6.38;100.00
26775;BME280;14362;51.902;7.626;2023-03-03T14:07:45;101896.50;;;6.65;100.00
26775;BME280;14362;51.902;7.626;2023-03-03T14:11:53;101894.84;;;6.74;100.00
26775;BME280;14362;51.902;7.626;2023-03-03T14:16:04;101889.03;;;6.81;100.00
26775;BME280;14362;51.902;7.626;2023-03-03T14:20:18;101885.97;;;6.72;100.00
26775;BME280;14362;51.902;7.626;2023-03-03T14:24:22;101882.41;;;6.82;100.00
26775;BME280;14362;51.902;7.626;2023-03-03T14:28:27;101883.25;;;6.82;100.00
26775;BME280;14362;51.902;7.626;2023-03-03T14:32:31;101883.28;;;6.92;100.00
26775;BME280;14362;51.902;7.626;2023-03-03T14:36:37;101881.31;;;6.78;100.00
26775;BME280;14362;51.902;7.626;2023-03-03T14:40:40;101877.66;;;6.72;100.00
26775;BME280;14362;51.902;7.626;2023-03-03T14:44:52;101867.56;;;6.41;100.00
26775;BME280;14362;51.902;7.626;2023-03-03T14:48:57;101868.47;;;6.57;100.00
26775;BME280;14362;51.902;7.626;2023-03-03T14:53:09;101865.78;;;6.77;100.00
26775;BME280;14362;51.902;7.626;2023-03-03T14:57:14;101869.94;;;6.79;100.00
26775;BME280;14362;51.902;7.626;2023-03-03T15:01:22;101865.84;;;6.97;100.00
26775;BME280;14362;51.902;7.626;2023-03-03T15:05:26;101856.16;;;7.14;100.00
26775;BME280;14362;51.902;7.626;2023-03-03T15:09:31;101858.38;;;7.07;100.00
26775;BME280;14362;51.902;7.626;2023-03-03T15:13:36;101853.31;;;6.89;100.00
26775;BME280;14362;51.902;7.626;2023-03-03T15:17:40;101858.03;;;6.79;100.00
26775;BME280;14362;51.902;7.626;2023-03-03T15:21:50;101853.63;;;6.93;100.00
26775;BME280;14362;51.902;7.626;2023-03-03T15:25:58;101837.56;;;7.00;100.00
26775;BME280;14362;51.902;7.626;2023-03-03T15:30:10;101844.75;;;7.01;100.00
26775;BME280;14362;51.902;7.626;2023-03-03T15:34:23;101831.22;;;7.04;100.00
26775;BME280;14362;51.902;7.626;2023-03-03T15:38:47;101819.28;;;6.94;100.00
26775;BME280;14362;51.902;7.626;2023-03-03T15:43:01;101818.97;;;6.85;100.00
26775;BME280;14362;51.902;7.626;2023-03-03T15:47:20;101818.41;;;6.78;100.00
26775;BME280;14362;51.902;7.626;2023-03-03T15:51:45;101817.28;;;6.69;100.00
26775;BME280;14362;51.902;7.626;2023-03-03T15:55:58;101816.72;;;6.67;100.00
26775;BME280;14362;51.902;7.626;2023-03-03T16:00:17;101809.69;;;6.45;100.00
26775;BME280;14362;51.902;7.626;2023-03-03T16:04:27;101802.78;;;6.42;100.00
26775;BME280;14362;51.902;7.626;2023-03-03T16:08:42;101812.97;;;6.32;100.00
26775;BME280;14362;51.902;7.626;2023-03-03T16:12:53;101807.13;;;6.23;100.00
26775;BME280;14362;51.902;7.626;2023-03-03T16:17:00;101803.75;;;6.11;100.00
26775;BME280;14362;51.902;7.626;2023-03-03T16:21:17;101807.59;;;6.06;100.00
26775;BME280;14362;51.902;7.626;2023-03-03T16:25:33;101813.31;;;5.94;100.00
26775;BME280;14362;51.902;7.626;2023-03-03T16:29:46;101808.56;;;5.85;100.00
26775;BME280;14362;51.902;7.626;2023-03-03T16:33:58;101808.81;;;5.78;100.00
26775;BME280;14362;51.902;7.626;2023-03-03T16:38:05;101812.56;;;5.67;100.00
26775;BME280;14362;51.902;7.626;2023-03-03T16:42:18;101813.59;;;5.56;100.00
26775;BME280;14362;51.902;7.626;2023-03-03T16:46:30;101819.88;;;5.47;100.00
26775;BME280;14362;51.902;7.626;2023-03-03T16:50:38;101807.09;;;5.41;100.00
26775;BME280;14362;51.902;7.626;2023-03-03T16:54:47;101810.72;;;5.41;100.00
26775;BME280;14362;51.902;7.626;2023-03-03T16:59:05;101806.53;;;5.39;100.00
26775;BME280;14362;51.902;7.626;2023-03-03T17:03:20;101809.88;;;5.41;100.00
26775;BME280;14362;51.902;7.626;2023-03-03T17:07:36;101806.59;;;5.44;100.00
26775;BME280;14362;51.902;7.626;2023-03-03T17:11:48;101805.47;;;5.45;100.00
26775;BME280;14362;51.902;7.626;2023-03-03T17:16:04;101814.88;;;5.44;100.00
26775;BME280;14362;51.902;7.626;2023-03-03T17:20:18;101824.53;;;5.41;100.00
26775;BME280;14362;51.902;7.626;2023-03-03T17:24:33;101825.06;;;5.38;100.00
26775;BME280;14362;51.902;7.626;2023-03-03T17:28:42;101814.59;;;5.40;100.00
26775;BME280;14362;51.902;7.626;2023-03-03T17:32:56;101826.16;;;5.37;100.00
26775;BME280;14362;51.902;7.626;2023-03-03T17:37:13;101830.03;;;5.36;100.00
26775;BME280;14362;51.902;7.626;2023-03-03T17:41:26;101827.53;;;5.35;100.00
26775;BME280;14362;51.902;7.626;2023-03-03T17:45:35;101831.63;;;5.32;100.00
26775;BME280;14362;51.902;7.626;2023-03-03T17:49:54;101845.44;;;5.27;100.00
26775;BME280;14362;51.902;7.626;2023-03-03T17:58:42;101842.00;;;5.15;100.00
26775;BME280;14362;51.902;7.626;2023-03-03T18:03:27;101848.03;;;5.12;100.00
26775;BME280;14362;51.902;7.626;2023-03-03T18:07:44;101853.03;;;5.15;100.00
26775;BME280;14362;51.902;7.626;2023-03-03T18:11:58;101860.25;;;5.16;100.00
26775;BME280;14362;51.902;7.626;2023-03-03T18:16:16;101856.69;;;5.21;100.00
26775;BME280;14362;51.902;7.626;2023-03-03T18:20:38;101863.88;;;5.22;100.00
26775;BME280;14362;51.902;7.626;2023-03-03T18:24:53;101855.59;;;5.22;100.00
26775;BME280;14362;51.902;7.626;2023-03-03T18:33:35;101868.06;;;5.24;100.00
26775;BME280;14362;51.902;7.626;2023-03-03T18:37:41;101867.22;;;5.24;100.00
26775;BME280;14362;51.902;7.626;2023-03-03T18:42:04;101868.91;;;5.25;100.00
26775;BME280;14362;51.902;7.626;2023-03-03T18:46:11;101873.91;;;5.28;100.00
26775;BME280;14362;51.902;7.626;2023-03-03T18:50:33;101879.16;;;5.29;100.00
26775;BME280;14362;51.902;7.626;2023-03-03T18:54:39;101878.34;;;5.29;100.00
26775;BME280;14362;51.902;7.626;2023-03-03T18:58:41;101882.19;;;5.28;100.00
26775;BME280;14362;51.902;7.626;2023-03-03T19:02:53;101874.72;;;5.28;100.00
26775;BME280;14362;51.902;7.626;2023-03-03T19:07:12;101877.25;;;5.30;100.00
26775;BME280;14362;51.902;7.626;2023-03-03T19:11:36;101871.13;;;5.28;100.00
26775;BME280;14362;51.902;7.626;2023-03-03T19:15:57;101875.84;;;5.27;100.00
26775;BME280;14362;51.902;7.626;2023-03-03T19:20:08;101875.84;;;5.27;100.00
26775;BME280;14362;51.902;7.626;2023-03-03T19:24:25;101865.88;;;5.26;100.00
26775;BME280;14362;51.902;7.626;2023-03-03T19:28:35;101870.56;;;5.26;100.00
26775;BME280;14362;51.902;7.626;2023-03-03T19:32:54;101875.50;;;5.24;100.00
26775;BME280;14362;51.902;7.626;2023-03-03T19:37:10;101873.63;;;5.29;100.00
26775;BME280;14362;51.902;7.626;2023-03-03T19:41:32;101870.88;;;5.29;100.00
26775;BME280;14362;51.902;7.626;2023-03-03T19:45:53;101869.75;;;5.25;100.00
26775;BME280;14362;51.902;7.626;2023-03-03T19:50:07;101876.72;;;5.33;100.00
26775;BME280;14362;51.902;7.626;2023-03-03T19:54:23;101874.25;;;5.36;100.00
26775;BME280;14362;51.902;7.626;2023-03-03T19:58:39;101862.09;;;5.37;100.00
26775;BME280;14362;51.902;7.626;2023-03-03T20:02:49;101869.03;;;5.40;100.00
26775;BME280;14362;51.902;7.626;2023-03-03T20:07:06;101875.13;;;5.42;100.00
26775;BME280;14362;51.902;7.626;2023-03-03T20:11:16;101874.88;;;5.43;100.00
26775;BME280;14362;51.902;7.626;2023-03-03T20:15:23;101880.13;;;5.45;100.00
26775;BME280;14362;51.902;7.626;2023-03-03T20:19:39;101874.38;;;5.46;100.00
26775;BME280;14362;51.902;7.626;2023-03-03T20:23:53;101878.53;;;5.49;100.00
26775;BME280;14362;51.902;7.626;2023-03-03T20:28:07;101873.22;;;5.47;100.00
26775;BME280;14362;51.902;7.626;2023-03-03T20:32:20;101871.63;;;5.51;100.00
26775;BME280;14362;51.902;7.626;2023-03-03T20:36:31;101874.72;;;5.55;100.00
26775;BME280;14362;51.902;7.626;2023-03-03T20:40:42;101879.38;;;5.54;100.00
26775;BME280;14362;51.902;7.626;2023-03-03T20:45:02;101891.31;;;5.55;100.00
26775;BME280;14362;51.902;7.626;2023-03-03T20:49:20;101884.34;;;5.52;100.00
26775;BME280;14362;51.902;7.626;2023-03-03T20:53:30;101881.59;;;5.52;100.00
26775;BME280;14362;51.902;7.626;2023-03-03T20:57:39;101873.03;;;5.54;100.00
26775;BME280;14362;51.902;7.626;2023-03-03T21:01:52;101881.59;;;5.52;100.00
26775;BME280;14362;51.902;7.626;2023-03-03T21:05:58;101878.81;;;5.52;100.00
26775;BME280;14362;51.902;7.626;2023-03-03T21:10:12;101876.34;;;5.51;100.00
26775;BME280;14362;51.902;7.626;2023-03-03T21:14:17;101874.38;;;5.51;100.00
26775;BME280;14362;51.902;7.626;2023-03-03T21:18:22;101880.25;;;5.60;100.00
26775;BME280;14362;51.902;7.626;2023-03-03T21:22:24;101867.81;;;5.57;100.00
26775;BME280;14362;51.902;7.626;2023-03-03T21:26:46;101871.97;;;5.60;100.00
26775;BME280;14362;51.902;7.626;2023-03-03T21:31:05;101880.84;;;5.62;100.00
26775;BME280;14362;51.902;7.626;2023-03-03T21:35:10;101871.19;;;5.64;100.00
26775;BME280;14362;51.902;7.626;2023-03-03T21:39:21;101879.16;;;5.61;100.00
26775;BME280;14362;51.902;7.626;2023-03-03T21:43:41;101875.94;;;5.69;100.00
26775;BME280;14362;51.902;7.626;2023-03-03T21:47:43;101874.22;;;5.63;100.00
26775;BME280;14362;51.902;7.626;2023-03-03T21:51:46;101877.25;;;5.61;100.00
26775;BME280;14362;51.902;7.626;2023-03-03T21:55:47;101871.41;;;5.58;100.00